Historyczne dane pomiarowe

Dodano dane terminowe – wersja testowa.

Dane z okresu 1951-2019

Wersja bazy: 1.34 [2019-03-16, lista zmian], aktualizacja planowana na 2019-04-15

Dane meteo z obszaru Polski uzyskane na podstawie danych udostępnionych przez Instytut Meteorologii i Gospodarki Wodnej – Państwowy Instytut Badawczy.

 

Wybierz Datę:    

       

TemperaturaWilgotnośćZachmurzenieWiatrCiśnienieWidzialnośćZjawiska
 Data    tng td wb rh cc ccl cl cm ch dir g1 g2 mslp ppp      
1999-08-02 00:00:00 13.2--- 7.9 10.470wxwx1wx--1020.9 998.5 0.0---wx
1999-08-02 01:00:00 12.4--- 6.6 9.468wxwx1wx--1020.9 998.5----wx
1999-08-02 02:00:00 11.2--- 7.4 9.277wxwx1wx--1021.0 998.5----wx
1999-08-02 03:00:00 10.4--- 7.7 9.083wxwx1wx--1021.1 998.5----wx
1999-08-02 04:00:00 11.4--- 7.6 9.477wxwx1wx--1021.0 998.5----wx
1999-08-02 05:00:00 15.0--- 7.9 11.263wxwx2wx--1021.0 998.8----wx
1999-08-02 06:00:00 17.0--- 8.7 12.458wxwx2wx--1020.9 998.8 0.0---wx
1999-08-02 07:00:00 20.7--- 9.7 14.449wxwxwx2wx--1020.4 998.6----wx
1999-08-02 08:00:00 22.2--- 8.4 14.441wxwxwx3wx--1020.3 998.6----wx
1999-08-02 09:00:00 23.2--- 7.5 14.436wxwxwx4wx--1019.9 998.3----wx
1999-08-02 10:00:00 23.4--- 8.0 14.737wxwxwxwx2wx--1019.8 998.2----wx
1999-08-02 11:00:00 24.0--- 8.2 15.036wxwxwxwx3wx--1019.3 997.8----wx
1999-08-02 12:00:00 24.4--- 8.0 15.135wxwxwxwx5wx--1018.8 997.3 0.0---wx
1999-08-02 13:00:00 24.8--- 8.1 15.335wxwxwxwx5wx--1018.3 996.9----wx
1999-08-02 14:00:00 25.3--- 7.9 15.433wxwxwxwx4wx--1017.9 996.5----wx
1999-08-02 15:00:00 25.2--- 8.2 15.534wxwxwxwx4wx--1017.8 996.4----wx
1999-08-02 16:00:00 24.2--- 8.0 15.035wxwxwx5wx--1017.8 996.3----wx
1999-08-02 17:00:00 22.0--- 8.6 14.442wxwxwx3wx--1018.0 996.4----wx
1999-08-02 18:00:00 20.2--- 9.1 13.949wxwxwx3wx--1018.2 996.4 0.0---wx
1999-08-02 19:00:00 19.3--- 8.3 13.249wxwxwx3wx--1018.4 996.6----wx
1999-08-02 20:00:00 17.4--- 8.7 12.657wxwxwx2wx--1018.7 996.7----wx
1999-08-02 21:00:00 16.5--- 8.3 12.058wxwxwx2wx--1019.2 997.1----wx
1999-08-02 22:00:00 13.8--- 8.0 10.768wxwxwx1wx--1019.4 997.1----wx
1999-08-02 23:00:00 12.0--- 8.2 10.078wxwxwx1wx--1019.3 996.9----wx

 

Źródłem pochodzenia danych jest Instytut Meteorologii i Gospodarki Wodnej – Państwowy Instytut Badawczy. Dane Instytutu Meteorologii i Gospodarki Wodnej – Państwowego Instytutu Badawczego zostały przetworzone.

Dane źródłowe można odnaleźć na stronie https://dane.imgw.pl